createdAt,value
2018-06-22T00:01:33.563Z,100827.31
2018-06-22T00:04:07.150Z,100826.14
2018-06-22T00:06:41.300Z,100823.55
2018-06-22T00:09:15.344Z,100822.43
2018-06-22T00:11:48.357Z,100823.58
2018-06-22T00:14:22.096Z,100823.37
2018-06-22T00:16:57.604Z,100822.89
2018-06-22T00:19:33.494Z,100819.98
2018-06-22T00:22:07.386Z,100821.88
2018-06-22T00:24:41.029Z,100818.23
2018-06-22T00:27:15.187Z,100811.92
2018-06-22T00:29:48.558Z,100812.11
2018-06-22T00:32:21.332Z,100811.19
2018-06-22T00:35:02.424Z,100810.70
2018-06-22T00:37:38.692Z,100802.50
2018-06-22T00:40:11.877Z,100809.00
2018-06-22T00:42:44.838Z,100801.80
2018-06-22T00:45:17.288Z,100796.42
2018-06-22T00:47:49.946Z,100794.04
2018-06-22T00:50:23.931Z,100795.59
2018-06-22T00:52:57.016Z,100790.98
2018-06-22T00:55:30.130Z,100789.60
2018-06-22T00:58:03.396Z,100784.91
2018-06-22T01:00:38.562Z,100781.52
2018-06-22T01:03:14.777Z,100781.55
2018-06-22T01:05:47.817Z,100780.63
2018-06-22T01:08:22.017Z,100787.06
2018-06-22T01:10:56.669Z,100787.09
2018-06-22T01:13:32.134Z,100784.28
2018-06-22T01:16:06.054Z,100785.00
2018-06-22T01:18:39.697Z,100785.69
2018-06-22T01:21:13.013Z,100787.45
2018-06-22T01:23:48.751Z,100781.20
2018-06-22T01:26:22.370Z,100777.27
2018-06-22T01:29:17.177Z,100776.47
2018-06-22T01:31:50.291Z,100777.94
2018-06-22T01:34:23.616Z,100787.33
2018-06-22T01:36:57.602Z,100790.94
2018-06-22T01:39:31.762Z,100780.41
2018-06-22T01:42:04.635Z,100784.21
2018-06-22T01:44:38.281Z,100785.14
2018-06-22T01:47:10.817Z,100783.75
2018-06-22T01:49:43.621Z,100785.55
2018-06-22T01:52:16.212Z,100782.19
2018-06-22T01:54:49.187Z,100788.95
2018-06-22T01:57:22.633Z,100789.19
2018-06-22T01:59:55.369Z,100790.12
2018-06-22T02:02:28.113Z,100790.03
2018-06-22T02:05:01.133Z,100792.86
2018-06-22T02:07:33.948Z,100789.34
2018-06-22T02:10:06.919Z,100782.91
2018-06-22T02:12:40.077Z,100779.59
2018-06-22T02:15:14.116Z,100776.90
2018-06-22T02:17:46.676Z,100772.00
2018-06-22T02:20:19.580Z,100775.94
2018-06-22T02:22:52.186Z,100772.73
2018-06-22T02:25:24.955Z,100769.14
2018-06-22T02:27:57.876Z,100773.28
2018-06-22T02:30:31.137Z,100769.24
2018-06-22T02:33:03.866Z,100773.25
2018-06-22T02:35:37.977Z,100768.78
2018-06-22T02:38:11.385Z,100763.35
2018-06-22T02:40:44.968Z,100769.73
2018-06-22T02:43:19.091Z,100767.19
2018-06-22T02:45:53.089Z,100763.72
2018-06-22T02:48:25.713Z,100765.77
2018-06-22T02:51:01.804Z,100760.77
2018-06-22T02:53:35.658Z,100757.32
2018-06-22T02:56:09.137Z,100750.33
2018-06-22T02:58:45.425Z,100755.25
2018-06-22T03:01:18.854Z,100749.91
2018-06-22T03:03:51.654Z,100754.33
2018-06-22T03:06:25.336Z,100761.41
2018-06-22T03:08:59.227Z,100761.28
2018-06-22T03:11:33.970Z,100759.06
2018-06-22T03:14:08.696Z,100760.83
2018-06-22T03:16:41.287Z,100769.08
2018-06-22T03:19:13.814Z,100759.96
2018-06-22T03:21:46.625Z,100770.72
2018-06-22T03:24:19.227Z,100769.72
2018-06-22T03:26:51.755Z,100773.06
2018-06-22T03:29:24.682Z,100773.59
2018-06-22T03:31:58.580Z,100774.05
2018-06-22T03:34:31.452Z,100763.09
2018-06-22T03:37:05.633Z,100760.03
2018-06-22T03:39:38.357Z,100754.56
2018-06-22T03:42:10.893Z,100750.64
2018-06-22T03:44:44.606Z,100761.28
2018-06-22T03:47:17.839Z,100750.45
2018-06-22T03:49:50.241Z,100765.13
2018-06-22T03:52:23.306Z,100749.80
2018-06-22T03:54:55.849Z,100746.81
2018-06-22T03:57:28.933Z,100749.75
2018-06-22T04:00:05.022Z,100740.65
2018-06-22T04:02:38.876Z,100744.92
2018-06-22T04:05:11.656Z,100743.82
2018-06-22T04:07:44.842Z,100745.87
2018-06-22T04:10:17.580Z,100750.69
2018-06-22T04:12:50.205Z,100741.59
2018-06-22T04:15:23.328Z,100738.89
2018-06-22T04:17:56.351Z,100744.27
2018-06-22T04:20:29.418Z,100735.05
2018-06-22T04:23:04.593Z,100735.39
2018-06-22T04:25:37.880Z,100733.11
2018-06-22T04:28:10.372Z,100725.55
2018-06-22T04:30:43.724Z,100727.12
2018-06-22T04:33:16.389Z,100723.78
2018-06-22T04:35:48.998Z,100726.92
2018-06-22T04:38:21.916Z,100729.77
2018-06-22T04:40:54.284Z,100737.97
2018-06-22T04:43:26.904Z,100734.52
2018-06-22T04:46:03.848Z,100732.66
2018-06-22T04:48:39.254Z,100732.81
2018-06-22T04:51:11.839Z,100737.58
2018-06-22T04:53:48.518Z,100741.58
2018-06-22T04:56:21.456Z,100735.14
2018-06-22T04:58:55.458Z,100740.95
2018-06-22T05:01:28.760Z,100735.88
2018-06-22T05:04:05.469Z,100725.55
2018-06-22T05:06:41.897Z,100728.55
2018-06-22T05:09:14.382Z,100738.11
2018-06-22T05:11:46.793Z,100738.71
2018-06-22T05:14:20.488Z,100741.30
2018-06-22T05:16:52.928Z,100763.27
2018-06-22T05:19:26.508Z,100755.48
2018-06-22T05:21:59.132Z,100763.42
2018-06-22T05:24:32.302Z,100758.55
2018-06-22T05:27:05.717Z,100763.00
2018-06-22T05:29:40.893Z,100775.02
2018-06-22T05:32:14.128Z,100776.33
2018-06-22T05:34:48.464Z,100766.05
2018-06-22T05:37:21.379Z,100764.28
2018-06-22T05:39:55.237Z,100758.84
2018-06-22T05:42:27.758Z,100767.38
2018-06-22T05:45:00.580Z,100762.91
2018-06-22T05:47:35.390Z,100761.55
2018-06-22T05:50:09.748Z,100755.32
2018-06-22T05:52:42.493Z,100773.11
2018-06-22T05:55:15.133Z,100780.11
2018-06-22T05:57:49.112Z,100773.86
2018-06-22T06:00:29.249Z,100777.17
2018-06-22T06:03:04.181Z,100784.06
2018-06-22T06:05:38.697Z,100780.59
2018-06-22T06:08:12.467Z,100778.33
2018-06-22T06:10:48.255Z,100783.18
2018-06-22T06:13:20.802Z,100785.27
2018-06-22T06:15:56.020Z,100776.50
2018-06-22T06:18:29.136Z,100769.95
2018-06-22T06:21:02.141Z,100774.17
2018-06-22T06:23:35.507Z,100775.13
2018-06-22T06:26:08.272Z,100774.89
2018-06-22T06:28:42.602Z,100771.34
2018-06-22T06:31:17.310Z,100784.15
2018-06-22T06:33:50.668Z,100782.45
2018-06-22T06:36:24.872Z,100780.76
2018-06-22T06:38:59.132Z,100775.58
2018-06-22T06:41:31.759Z,100791.95
2018-06-22T06:44:04.385Z,100783.14
2018-06-22T06:46:38.946Z,100792.19
2018-06-22T06:49:11.504Z,100797.62
2018-06-22T06:51:52.360Z,100782.02
2018-06-22T06:54:26.967Z,100795.64
2018-06-22T06:56:59.408Z,100788.25
2018-06-22T06:59:34.069Z,100793.94
2018-06-22T07:02:07.332Z,100790.02
2018-06-22T07:04:40.588Z,100794.19
2018-06-22T07:07:15.732Z,100791.74
2018-06-22T07:09:48.285Z,100799.60
2018-06-22T07:12:21.824Z,100797.07
2018-06-22T07:15:00.437Z,100798.22
2018-06-22T07:17:46.700Z,100804.98
2018-06-22T07:20:24.703Z,100804.32
2018-06-22T07:23:02.717Z,100798.06
2018-06-22T07:25:37.964Z,100808.37
2018-06-22T07:28:12.211Z,100815.45
2018-06-22T07:30:48.612Z,100815.87
2018-06-22T07:33:21.169Z,100810.91
2018-06-22T07:35:57.408Z,100818.72
2018-06-22T07:38:34.703Z,100813.98
2018-06-22T07:41:09.799Z,100819.52
2018-06-22T07:43:44.199Z,100826.00
2018-06-22T07:46:17.820Z,100829.09
2018-06-22T07:48:52.685Z,100829.06
2018-06-22T07:51:27.709Z,100833.74
2018-06-22T07:54:02.634Z,100838.54
2018-06-22T07:56:35.880Z,100842.45
2018-06-22T07:59:10.269Z,100842.95
2018-06-22T08:01:43.358Z,100845.10
2018-06-22T08:04:16.879Z,100858.84
2018-06-22T08:06:50.815Z,100860.87
2018-06-22T08:09:25.469Z,100857.75
2018-06-22T08:11:58.927Z,100858.91
2018-06-22T08:14:32.061Z,100858.98
2018-06-22T08:17:04.708Z,100860.66
2018-06-22T08:19:38.943Z,100866.21
2018-06-22T08:22:11.632Z,100868.32
2018-06-22T08:24:46.596Z,100871.05
2018-06-22T08:27:20.400Z,100865.66
2018-06-22T08:29:59.004Z,100872.31
2018-06-22T08:32:31.356Z,100893.41
2018-06-22T08:35:03.981Z,100881.85
2018-06-22T08:37:38.443Z,100883.92
2018-06-22T08:40:11.210Z,100887.13
2018-06-22T08:42:43.825Z,100889.09
2018-06-22T08:45:16.393Z,100891.73
2018-06-22T08:47:54.116Z,100886.36
2018-06-22T08:50:27.781Z,100896.20
2018-06-22T08:53:01.421Z,100889.55
2018-06-22T08:55:35.929Z,100889.13
2018-06-22T08:58:10.459Z,100892.91
2018-06-22T09:00:45.396Z,100895.42
2018-06-22T09:03:18.208Z,100898.07
2018-06-22T09:05:51.251Z,100895.31
2018-06-22T09:08:25.197Z,100910.32
2018-06-22T09:10:59.324Z,100898.66
2018-06-22T09:13:32.702Z,100911.61
2018-06-22T09:16:06.142Z,100912.36
2018-06-22T09:18:45.857Z,100920.55
2018-06-22T09:21:24.219Z,100914.98
2018-06-22T09:23:57.337Z,100919.53
2018-06-22T09:26:31.157Z,100919.39
2018-06-22T09:29:04.253Z,100920.09
2018-06-22T09:31:36.682Z,100915.05
2018-06-22T09:34:11.439Z,100924.36
2018-06-22T09:36:45.083Z,100928.72
2018-06-22T09:39:17.555Z,100911.70
2018-06-22T09:41:52.602Z,100923.38
2018-06-22T09:44:37.116Z,100922.31
2018-06-22T09:47:13.540Z,100916.16
2018-06-22T09:49:49.652Z,100930.45
2018-06-22T09:52:23.577Z,100925.22
2018-06-22T09:54:59.628Z,100930.28
2018-06-22T09:57:35.163Z,100927.55
2018-06-22T10:00:08.926Z,100915.07
2018-06-22T10:02:43.010Z,100924.95
2018-06-22T10:05:18.744Z,100915.33
2018-06-22T10:07:55.926Z,100918.87
2018-06-22T10:10:30.342Z,100921.84
2018-06-22T10:13:06.248Z,100934.75
2018-06-22T10:15:39.700Z,100923.42
2018-06-22T10:18:14.772Z,100920.41
2018-06-22T10:20:50.275Z,100912.56
2018-06-22T10:23:23.249Z,100914.27
2018-06-22T10:25:56.481Z,100911.24
2018-06-22T10:28:29.428Z,100915.42
2018-06-22T10:31:02.797Z,100912.33
2018-06-22T10:33:36.723Z,100908.80
2018-06-22T10:36:12.481Z,100918.38
2018-06-22T10:38:50.196Z,100922.16
2018-06-22T10:41:24.032Z,100916.27
2018-06-22T10:43:59.650Z,100932.05
2018-06-22T10:46:33.565Z,100925.02
2018-06-22T10:49:13.481Z,100920.45
2018-06-22T10:51:51.263Z,100928.21
2018-06-22T10:54:25.259Z,100924.12
2018-06-22T10:57:01.705Z,100918.72
2018-06-22T10:59:34.311Z,100921.12
2018-06-22T11:02:08.714Z,100926.39
2018-06-22T11:04:48.782Z,100932.61
2018-06-22T11:07:27.793Z,100929.08
2018-06-22T11:10:01.834Z,100931.73
2018-06-22T11:12:50.229Z,100933.46
2018-06-22T11:15:48.710Z,100939.86
2018-06-22T11:18:37.024Z,100929.43
2018-06-22T11:21:35.502Z,100923.00
2018-06-22T11:24:28.375Z,100927.98
2018-06-22T11:27:05.736Z,100917.17
2018-06-22T11:29:45.884Z,100933.22
2018-06-22T11:32:32.598Z,100923.95
2018-06-22T11:35:08.478Z,100927.82
2018-06-22T11:37:46.895Z,100939.73
2018-06-22T11:40:25.600Z,100941.98
2018-06-22T11:44:01.730Z,100948.57
2018-06-22T11:46:47.550Z,100951.33
2018-06-22T11:49:30.525Z,100948.09
2018-06-22T11:52:12.212Z,100948.08
2018-06-22T11:54:51.544Z,100946.83
2018-06-22T11:57:27.304Z,100944.88
2018-06-22T12:00:08.781Z,100943.98
2018-06-22T12:02:46.853Z,100933.09
2018-06-22T12:05:27.637Z,100932.58
2018-06-22T12:08:04.605Z,100924.81
2018-06-22T12:10:42.501Z,100931.09
2018-06-22T12:13:19.542Z,100923.72
2018-06-22T12:15:57.113Z,100924.84
2018-06-22T12:18:30.517Z,100920.57
2018-06-22T12:21:08.391Z,100914.02
2018-06-22T12:23:42.144Z,100922.98
2018-06-22T12:26:14.873Z,100927.95
2018-06-22T12:28:52.414Z,100932.57
2018-06-22T12:31:26.511Z,100942.81
2018-06-22T12:34:01.482Z,100952.23
2018-06-22T12:36:35.981Z,100965.17
2018-06-22T12:39:13.936Z,100958.89
2018-06-22T12:41:47.155Z,100961.50
2018-06-22T12:44:19.893Z,100956.51
2018-06-22T12:46:57.767Z,100956.98
2018-06-22T12:49:38.506Z,100954.12
2018-06-22T12:52:18.282Z,100943.28
2018-06-22T12:54:53.889Z,100935.48
2018-06-22T12:57:28.591Z,100928.97
2018-06-22T13:00:06.619Z,100929.45
2018-06-22T13:02:51.747Z,100932.61
2018-06-22T13:05:25.629Z,100932.75
2018-06-22T13:08:01.232Z,100927.50
2018-06-22T13:10:34.493Z,100921.73
2018-06-22T13:13:13.384Z,100922.80
2018-06-22T13:16:04.679Z,100920.45
2018-06-22T13:18:38.185Z,100917.94
2018-06-22T13:21:11.837Z,100917.50
2018-06-22T13:23:45.896Z,100922.56
2018-06-22T13:26:19.428Z,100919.32
2018-06-22T13:28:59.773Z,100920.80
2018-06-22T13:31:35.328Z,100921.52
2018-06-22T13:34:08.430Z,100919.22
2018-06-22T13:36:45.016Z,100913.30
2018-06-22T13:39:19.182Z,100920.63
2018-06-22T13:42:05.515Z,100916.50
2018-06-22T13:44:38.636Z,100915.48
2018-06-22T13:47:12.552Z,100912.03
2018-06-22T13:49:55.926Z,100915.50
2018-06-22T13:52:32.737Z,100916.40
2018-06-22T13:55:05.932Z,100908.30
2018-06-22T13:57:41.865Z,100915.09
2018-06-22T14:00:18.404Z,100906.08
2018-06-22T14:02:58.825Z,100913.92
2018-06-22T14:05:47.645Z,100907.92
2018-06-22T14:08:27.872Z,100911.84
2018-06-22T14:11:07.606Z,100906.83
2018-06-22T14:13:41.597Z,100909.16
2018-06-22T14:16:21.721Z,100912.63
2018-06-22T14:19:00.758Z,100915.76
2018-06-22T14:21:36.626Z,100923.24
2018-06-22T14:24:10.169Z,100928.73
2018-06-22T14:26:43.889Z,100940.99
2018-06-22T14:29:20.482Z,100926.66
2018-06-22T14:31:58.537Z,100923.70
2018-06-22T14:34:32.633Z,100922.27
2018-06-22T14:37:06.960Z,100916.73
2018-06-22T14:39:40.807Z,100922.77
2018-06-22T14:42:31.392Z,100935.50
2018-06-22T14:45:11.756Z,100942.53
2018-06-22T14:47:49.921Z,100927.14
2018-06-22T14:50:23.470Z,100939.25
2018-06-22T14:53:03.943Z,100937.49
2018-06-22T14:56:03.284Z,100920.91
2018-06-22T14:58:57.909Z,100920.64
2018-06-22T15:01:38.210Z,100921.34
2018-06-22T15:04:18.558Z,100913.60
2018-06-22T15:06:58.958Z,100919.89
2018-06-22T15:09:33.779Z,100909.76
2018-06-22T15:12:11.092Z,100920.32
2018-06-22T15:14:45.224Z,100932.00
2018-06-22T15:17:21.715Z,100923.89
2018-06-22T15:19:57.198Z,100919.35
2018-06-22T15:22:33.753Z,100919.13
2018-06-22T15:25:14.391Z,100932.19
2018-06-22T15:27:50.139Z,100922.08
2018-06-22T15:30:24.357Z,100929.27
2018-06-22T15:45:26.568Z,100934.77
2018-06-22T15:48:08.333Z,100938.82
2018-06-22T15:50:46.555Z,100925.25
2018-06-22T15:53:26.949Z,100924.44
2018-06-22T15:56:09.635Z,100927.42
2018-06-22T15:58:42.364Z,100938.16
2018-06-22T16:01:16.157Z,100930.54
2018-06-22T16:03:57.451Z,100934.37
2018-06-22T16:06:32.597Z,100937.66
2018-06-22T16:09:10.601Z,100936.06
2018-06-22T16:11:43.708Z,100945.30
2018-06-22T16:14:30.501Z,100961.67
2018-06-22T16:17:13.938Z,100949.83
2018-06-22T16:19:53.287Z,100950.22
2018-06-22T16:22:31.316Z,100938.92
2018-06-22T16:25:14.330Z,100954.36
2018-06-22T16:27:53.782Z,100950.93
2018-06-22T16:30:29.085Z,100948.33
2018-06-22T16:33:11.114Z,100956.30
2018-06-22T16:35:45.225Z,100959.44
2018-06-22T16:38:20.783Z,100962.23
2018-06-22T16:40:56.430Z,100963.02
2018-06-22T16:43:29.176Z,100948.98
2018-06-22T16:46:12.362Z,100963.98
2018-06-22T16:48:46.713Z,100963.95
2018-06-22T16:51:21.022Z,100967.63
2018-06-22T16:54:01.377Z,100974.83
2018-06-22T16:56:35.441Z,100965.27
2018-06-22T16:59:12.089Z,100972.04
2018-06-22T17:01:48.415Z,100972.59
2018-06-22T17:04:21.802Z,100985.50
2018-06-22T17:07:04.817Z,100979.05
2018-06-22T17:09:46.049Z,100980.02
2018-06-22T17:12:26.677Z,100970.95
2018-06-22T17:15:08.638Z,100971.82
2018-06-22T17:17:51.572Z,100981.34
2018-06-22T17:20:38.584Z,100972.84
2018-06-22T17:23:16.639Z,100975.48
2018-06-22T17:25:49.969Z,100977.58
2018-06-22T17:28:25.961Z,100980.41
2018-06-22T17:31:02.850Z,100977.14
2018-06-22T17:33:40.361Z,100981.65
2018-06-22T17:36:18.975Z,100978.95
2018-06-22T17:39:50.751Z,100981.36
2018-06-22T17:42:26.804Z,100974.44
2018-06-22T17:45:15.571Z,100978.10
2018-06-22T17:47:51.328Z,100978.84
2018-06-22T17:50:30.044Z,100978.89
2018-06-22T17:53:15.142Z,100986.36
2018-06-22T17:55:55.223Z,100979.70
2018-06-22T17:58:27.693Z,100988.83
2018-06-22T18:01:12.180Z,100981.33
2018-06-22T18:03:54.677Z,100996.36
2018-06-22T18:06:34.941Z,100995.24
2018-06-22T18:09:19.446Z,100989.70
2018-06-22T18:11:59.153Z,100992.42
2018-06-22T18:14:33.748Z,100999.59
2018-06-22T18:17:08.478Z,101000.24
2018-06-22T18:19:41.575Z,101000.41
2018-06-22T18:22:16.760Z,100999.73
2018-06-22T18:24:49.244Z,101006.56
2018-06-22T18:27:23.255Z,101006.16
2018-06-22T18:29:56.805Z,101008.55
2018-06-22T18:32:30.854Z,101009.22
2018-06-22T18:35:14.476Z,101018.14
2018-06-22T18:37:48.200Z,101013.58
2018-06-22T18:40:21.058Z,101017.34
2018-06-22T18:42:55.987Z,101026.48
2018-06-22T18:45:32.096Z,101031.33
2018-06-22T18:48:08.612Z,101028.69
2018-06-22T18:50:46.978Z,101033.57
2018-06-22T18:53:27.121Z,101042.38
2018-06-22T18:56:07.956Z,101046.77
2018-06-22T18:58:48.679Z,101045.52
2018-06-22T19:01:29.564Z,101048.23
2018-06-22T19:04:19.433Z,101041.53
2018-06-22T19:06:53.464Z,101044.11
2018-06-22T19:09:30.332Z,101047.95
2018-06-22T19:12:05.987Z,101036.94
2018-06-22T19:14:49.730Z,101040.03
2018-06-22T19:17:27.205Z,101045.83
2018-06-22T19:20:03.440Z,101044.88
2018-06-22T19:22:40.838Z,101046.36
2018-06-22T19:25:20.619Z,101055.98
2018-06-22T19:27:55.472Z,101054.94
2018-06-22T19:30:31.504Z,101058.83
2018-06-22T19:33:11.363Z,101064.16
2018-06-22T19:35:50.052Z,101056.06
2018-06-22T19:38:25.296Z,101060.06
2018-06-22T19:41:01.487Z,101069.98
2018-06-22T19:43:42.563Z,101068.78
2018-06-22T19:46:27.502Z,101070.72
2018-06-22T19:49:07.703Z,101074.31
2018-06-22T19:51:52.780Z,101079.33
2018-06-22T19:54:31.369Z,101082.60
2018-06-22T19:57:16.002Z,101086.33
2018-06-22T19:59:51.648Z,101087.20
2018-06-22T20:02:25.632Z,101091.63
2018-06-22T20:05:01.909Z,101097.28
2018-06-22T20:07:39.699Z,101092.88
2018-06-22T20:10:19.684Z,101096.19
2018-06-22T20:13:00.451Z,101086.30
2018-06-22T20:15:41.375Z,101093.25
2018-06-22T20:18:25.656Z,101094.61
2018-06-22T20:21:13.769Z,101093.51
2018-06-22T20:23:52.317Z,101094.98
2018-06-22T20:26:31.329Z,101096.77
2018-06-22T20:29:16.011Z,101093.05
2018-06-22T20:31:54.095Z,101096.35
2018-06-22T20:34:34.068Z,101094.10
2018-06-22T20:37:19.424Z,101097.15
2018-06-22T20:40:02.404Z,101098.29
2018-06-22T20:42:55.642Z,101102.25
2018-06-22T20:45:34.676Z,101100.53
2018-06-22T20:48:22.176Z,101100.59
2018-06-22T20:51:03.186Z,101105.20
2018-06-22T20:53:46.299Z,101117.02
2018-06-22T20:56:27.893Z,101117.01
2018-06-22T20:59:08.507Z,101120.80
2018-06-22T21:01:50.584Z,101124.86
2018-06-22T21:04:29.065Z,101122.09
2018-06-22T21:07:04.546Z,101118.64
2018-06-22T21:09:42.449Z,101115.13
2018-06-22T21:12:26.253Z,101118.03
2018-06-22T21:14:57.866Z,101119.95
2018-06-22T21:17:37.877Z,101127.24
2018-06-22T21:20:16.625Z,101125.95
2018-06-22T21:22:49.466Z,101125.57
2018-06-22T21:25:32.481Z,101122.44
2018-06-22T21:28:24.036Z,101127.27
2018-06-22T21:31:08.228Z,101120.70
2018-06-22T21:33:52.617Z,101125.80
2018-06-22T21:36:35.481Z,101127.70
2018-06-22T21:39:18.866Z,101130.44
2018-06-22T21:42:05.776Z,101130.06
2018-06-22T21:44:47.307Z,101135.17
2018-06-22T21:47:26.593Z,101135.36
2018-06-22T21:50:02.727Z,101139.86
2018-06-22T21:52:41.029Z,101138.52
2018-06-22T21:55:18.907Z,101141.27
2018-06-22T21:57:54.309Z,101142.47
2018-06-22T22:00:35.730Z,101148.59
2018-06-22T22:03:11.452Z,101146.53
2018-06-22T22:05:45.024Z,101153.84
2018-06-22T22:08:24.657Z,101153.39
2018-06-22T22:11:12.692Z,101150.38
2018-06-22T22:13:50.549Z,101156.46
2018-06-22T22:16:23.514Z,101153.65
2018-06-22T22:18:56.246Z,101151.30
2018-06-22T22:21:31.666Z,101150.19
2018-06-22T22:24:07.506Z,101156.45
2018-06-22T22:26:41.819Z,101159.89
2018-06-22T22:29:21.941Z,101160.14
2018-06-22T22:31:57.048Z,101159.75
2018-06-22T22:34:32.202Z,101163.05
2018-06-22T22:37:06.781Z,101158.90
2018-06-22T22:39:40.077Z,101157.58
2018-06-22T22:42:22.528Z,101157.09
2018-06-22T22:45:07.851Z,101156.23
2018-06-22T22:47:43.624Z,101156.27
2018-06-22T22:50:18.654Z,101154.48
2018-06-22T22:52:56.610Z,101150.66
2018-06-22T22:55:32.209Z,101148.89
2018-06-22T22:58:09.003Z,101146.50
2018-06-22T23:00:49.878Z,101140.03
2018-06-22T23:03:33.392Z,101138.33
2018-06-22T23:06:11.022Z,101140.71
2018-06-22T23:08:47.902Z,101139.48
2018-06-22T23:11:23.246Z,101134.62
2018-06-22T23:13:58.304Z,101135.17
2018-06-22T23:16:34.749Z,101136.35
2018-06-22T23:19:16.541Z,101131.67
2018-06-22T23:21:50.022Z,101129.63
2018-06-22T23:24:25.531Z,101135.36
2018-06-22T23:26:59.266Z,101139.13
2018-06-22T23:29:32.049Z,101126.69
2018-06-22T23:32:08.267Z,101126.41
2018-06-22T23:34:41.084Z,101131.80
2018-06-22T23:37:15.468Z,101129.91
2018-06-22T23:39:50.235Z,101127.23
2018-06-22T23:42:23.340Z,101127.69
2018-06-22T23:44:58.815Z,101126.41
2018-06-22T23:47:34.098Z,101124.35
2018-06-22T23:50:06.776Z,101120.69
2018-06-22T23:52:43.366Z,101116.92
2018-06-22T23:55:22.872Z,101118.57
2018-06-22T23:57:55.896Z,101118.47
